createdAt,value
2019-03-06T00:01:00.479Z,15.77
2019-03-06T00:03:30.236Z,15.33
2019-03-06T00:05:59.982Z,20.47
2019-03-06T00:08:29.758Z,20.80
2019-03-06T00:10:59.542Z,18.83
2019-03-06T00:13:28.799Z,15.60
2019-03-06T00:15:58.481Z,22.03
2019-03-06T00:18:27.752Z,18.07
2019-03-06T00:20:57.273Z,19.97
2019-03-06T00:23:27.034Z,14.27
2019-03-06T00:25:56.805Z,23.70
2019-03-06T00:28:26.002Z,16.93
2019-03-06T00:30:55.657Z,14.20
2019-03-06T00:33:25.374Z,21.30
2019-03-06T00:35:55.585Z,21.27
2019-03-06T00:38:25.449Z,16.63
2019-03-06T00:41:09.119Z,21.33
2019-03-06T00:43:38.797Z,20.83
2019-03-06T00:46:08.503Z,24.30
2019-03-06T00:48:38.206Z,18.93
2019-03-06T00:51:08.887Z,21.40
2019-03-06T00:53:38.151Z,25.70
2019-03-06T00:56:07.819Z,21.20
2019-03-06T00:58:37.537Z,21.20
2019-03-06T01:01:07.258Z,18.03
2019-03-06T01:03:36.477Z,18.47
2019-03-06T01:06:06.512Z,17.63
2019-03-06T01:08:35.823Z,14.93
2019-03-06T01:11:05.803Z,16.33
2019-03-06T01:13:35.732Z,15.33
2019-03-06T01:16:05.467Z,17.10
2019-03-06T01:18:34.728Z,16.87
2019-03-06T01:21:05.542Z,16.50
2019-03-06T01:23:35.416Z,18.73
2019-03-06T01:26:04.878Z,14.67
2019-03-06T01:28:34.122Z,18.73
2019-03-06T01:31:04.282Z,12.87
2019-03-06T01:33:45.875Z,21.27
2019-03-06T01:36:25.078Z,15.10
2019-03-06T01:39:01.818Z,12.43
2019-03-06T01:41:50.259Z,15.23
2019-03-06T01:44:27.081Z,12.67
2019-03-06T01:46:56.746Z,21.93
2019-03-06T01:49:26.001Z,15.97
2019-03-06T01:51:55.593Z,13.97
2019-03-06T01:54:25.323Z,13.13
2019-03-06T01:56:54.998Z,13.70
2019-03-06T01:59:24.255Z,11.43
2019-03-06T02:01:53.944Z,14.07
2019-03-06T02:04:23.630Z,27.60
2019-03-06T02:06:53.490Z,18.67
2019-03-06T02:09:26.241Z,13.60
2019-03-06T02:11:58.874Z,19.57
2019-03-06T02:14:28.629Z,15.50
2019-03-06T02:16:58.375Z,17.33
2019-03-06T02:19:28.110Z,16.10
2019-03-06T02:21:57.931Z,20.67
2019-03-06T02:24:27.586Z,17.30
2019-03-06T02:26:57.474Z,11.07
2019-03-06T02:29:27.126Z,20.67
2019-03-06T02:31:56.365Z,21.13
2019-03-06T02:34:25.943Z,22.33
2019-03-06T02:36:55.612Z,15.80
2019-03-06T02:39:25.301Z,20.07
2019-03-06T02:41:54.948Z,22.57
2019-03-06T02:44:24.642Z,21.97
2019-03-06T02:46:53.906Z,15.80
2019-03-06T02:49:23.673Z,19.40
2019-03-06T02:51:53.490Z,18.63
2019-03-06T02:54:23.355Z,21.93
2019-03-06T02:56:52.990Z,15.47
2019-03-06T02:59:27.266Z,21.03
2019-03-06T03:02:01.232Z,25.40
2019-03-06T03:04:35.157Z,17.63
2019-03-06T03:07:07.675Z,19.20
2019-03-06T03:09:37.583Z,27.20
2019-03-06T03:12:07.370Z,17.00
2019-03-06T03:14:37.037Z,21.37
2019-03-06T03:17:06.853Z,18.73
2019-03-06T03:19:36.505Z,17.00
2019-03-06T03:22:06.599Z,20.93
2019-03-06T03:24:35.847Z,20.60
2019-03-06T03:27:05.656Z,16.37
2019-03-06T03:29:35.445Z,22.73
2019-03-06T03:32:05.178Z,22.20
2019-03-06T03:34:35.181Z,17.63
2019-03-06T03:37:04.425Z,20.40
2019-03-06T03:39:34.061Z,20.80
2019-03-06T03:42:03.953Z,23.23
2019-03-06T03:44:33.723Z,24.40
2019-03-06T03:47:03.257Z,25.13
2019-03-06T03:49:32.815Z,18.83
2019-03-06T03:52:02.548Z,23.77
2019-03-06T03:54:31.859Z,19.17
2019-03-06T03:57:02.246Z,21.97
2019-03-06T03:59:32.058Z,20.70
2019-03-06T04:02:01.718Z,20.73
2019-03-06T04:04:31.593Z,16.83
2019-03-06T04:07:01.296Z,24.30
2019-03-06T04:09:30.960Z,21.63
2019-03-06T04:12:01.085Z,22.60
2019-03-06T04:14:31.838Z,23.90
2019-03-06T04:17:01.220Z,17.43
2019-03-06T04:19:30.820Z,27.70
2019-03-06T04:22:00.570Z,26.47
2019-03-06T04:24:29.951Z,21.60
2019-03-06T04:27:00.052Z,19.47
2019-03-06T04:29:29.611Z,20.67
2019-03-06T04:31:59.232Z,23.77
2019-03-06T04:34:28.691Z,21.93
2019-03-06T04:36:58.286Z,21.00
2019-03-06T04:39:27.967Z,23.30
2019-03-06T04:41:57.816Z,23.07
2019-03-06T04:44:27.451Z,23.47
2019-03-06T04:46:57.110Z,28.27
2019-03-06T04:49:26.807Z,23.40
2019-03-06T04:51:56.539Z,25.57
2019-03-06T04:54:25.769Z,23.50
2019-03-06T04:56:55.421Z,26.40
2019-03-06T04:59:25.180Z,27.60
2019-03-06T05:01:54.433Z,30.40
2019-03-06T05:04:23.985Z,29.17
2019-03-06T05:06:53.715Z,24.63
2019-03-06T05:09:23.366Z,31.30
2019-03-06T05:11:53.127Z,29.93
2019-03-06T05:14:22.855Z,33.70
2019-03-06T05:17:11.880Z,29.23
2019-03-06T05:19:41.957Z,31.33
2019-03-06T05:22:11.304Z,31.77
2019-03-06T05:24:40.964Z,35.40
2019-03-06T05:27:10.165Z,31.10
2019-03-06T05:29:39.807Z,30.07
2019-03-06T05:32:28.276Z,33.40
2019-03-06T05:34:59.693Z,25.30
2019-03-06T05:38:02.615Z,33.67
2019-03-06T05:40:32.350Z,29.60
2019-03-06T05:43:01.564Z,31.17
2019-03-06T05:45:30.711Z,31.43
2019-03-06T05:48:00.343Z,33.20
2019-03-06T05:50:29.979Z,30.50
2019-03-06T05:52:59.677Z,29.83
2019-03-06T05:55:29.320Z,27.50
2019-03-06T05:57:59.106Z,32.73
2019-03-06T06:00:28.793Z,29.97
2019-03-06T06:02:58.675Z,31.90
2019-03-06T06:05:28.559Z,29.30
2019-03-06T06:07:58.369Z,33.57
2019-03-06T06:10:28.095Z,32.87
2019-03-06T06:12:57.355Z,31.67
2019-03-06T06:15:26.472Z,24.73
2019-03-06T06:17:57.128Z,30.20
2019-03-06T06:20:26.517Z,24.67
2019-03-06T06:23:16.939Z,26.80
2019-03-06T06:25:46.136Z,26.43
2019-03-06T06:28:15.818Z,21.90
2019-03-06T06:30:45.006Z,25.37
2019-03-06T06:33:14.762Z,25.30
2019-03-06T06:35:44.051Z,28.00
2019-03-06T06:38:14.403Z,23.53
2019-03-06T06:40:43.636Z,26.03
2019-03-06T06:43:12.910Z,24.33
2019-03-06T06:45:42.216Z,25.63
2019-03-06T06:48:16.709Z,27.33
2019-03-06T06:51:01.265Z,25.53
2019-03-06T06:53:28.751Z,28.57
2019-03-06T06:56:29.694Z,24.33
2019-03-06T06:59:07.678Z,23.87
2019-03-06T07:02:00.143Z,23.27
2019-03-06T07:04:55.371Z,25.60
2019-03-06T07:07:32.331Z,24.63
2019-03-06T07:10:13.086Z,24.27
2019-03-06T07:12:51.479Z,24.90
2019-03-06T07:15:48.388Z,26.03
2019-03-06T07:18:26.228Z,22.47
2019-03-06T07:21:01.961Z,30.97
2019-03-06T07:23:47.043Z,32.53
2019-03-06T07:26:34.449Z,35.20
2019-03-06T07:29:29.188Z,35.40
2019-03-06T07:32:15.278Z,32.33
2019-03-06T07:35:22.872Z,30.50
2019-03-06T07:38:03.625Z,34.80
2019-03-06T07:40:52.045Z,27.57
2019-03-06T07:43:31.714Z,30.67
2019-03-06T07:46:12.674Z,25.57
2019-03-06T07:48:50.464Z,26.83
2019-03-06T07:51:27.123Z,27.90
2019-03-06T07:54:12.669Z,25.33
2019-03-06T07:56:45.073Z,24.33
2019-03-06T07:59:14.285Z,26.00
2019-03-06T08:01:47.908Z,27.50
2019-03-06T08:04:17.347Z,24.67
2019-03-06T08:06:50.132Z,25.70
2019-03-06T08:09:19.691Z,27.53
2019-03-06T08:12:06.837Z,26.80
2019-03-06T08:14:48.342Z,32.00
2019-03-06T08:17:45.508Z,30.80
2019-03-06T08:20:33.874Z,27.50
2019-03-06T08:23:21.038Z,30.17
2019-03-06T08:25:51.338Z,37.03
2019-03-06T08:28:20.615Z,34.90
2019-03-06T08:30:56.758Z,29.83
2019-03-06T08:33:26.154Z,28.40
2019-03-06T08:35:55.447Z,33.03
2019-03-06T08:38:24.701Z,28.13
2019-03-06T08:41:03.412Z,29.43
2019-03-06T08:43:24.726Z,36.60
2019-03-06T08:46:42.728Z,33.67
2019-03-06T08:49:41.149Z,35.60
2019-03-06T08:52:24.516Z,31.80
2019-03-06T08:55:31.571Z,32.70
2019-03-06T08:58:22.759Z,31.83
2019-03-06T09:01:12.548Z,32.27
2019-03-06T09:04:19.111Z,30.57
2019-03-06T09:06:59.559Z,29.43
2019-03-06T09:09:39.912Z,30.93
2019-03-06T09:12:32.497Z,31.23
2019-03-06T09:15:27.307Z,29.50
2019-03-06T09:18:13.247Z,30.77
2019-03-06T09:20:52.578Z,32.93
2019-03-06T09:23:43.995Z,32.07
2019-03-06T09:26:32.049Z,29.27
2019-03-06T09:29:08.371Z,30.67
2019-03-06T09:31:48.765Z,32.27
2019-03-06T09:34:30.633Z,28.93
2019-03-06T09:37:16.981Z,33.97
2019-03-06T09:39:54.725Z,30.70
2019-03-06T09:42:38.608Z,31.87
2019-03-06T09:45:19.479Z,31.20
2019-03-06T09:47:59.525Z,32.30
2019-03-06T09:50:34.434Z,27.57
2019-03-06T09:53:15.069Z,30.40
2019-03-06T09:55:59.724Z,32.57
2019-03-06T09:58:48.152Z,33.20
2019-03-06T10:01:24.707Z,31.87
2019-03-06T10:04:04.889Z,33.67
2019-03-06T10:06:52.401Z,31.20
2019-03-06T10:09:31.562Z,32.87
2019-03-06T10:12:12.804Z,36.83
2019-03-06T10:15:04.919Z,30.70
2019-03-06T10:17:43.756Z,34.13
2019-03-06T10:20:24.838Z,35.20
2019-03-06T10:22:48.866Z,33.93
2019-03-06T10:25:18.193Z,35.43
2019-03-06T10:27:48.300Z,34.50
2019-03-06T10:30:18.719Z,38.17
2019-03-06T10:32:48.401Z,33.90
2019-03-06T10:35:17.747Z,35.97
2019-03-06T10:37:47.458Z,34.40
2019-03-06T10:40:17.067Z,32.93
2019-03-06T10:42:47.504Z,35.77
2019-03-06T10:45:17.129Z,34.13
2019-03-06T10:47:47.918Z,35.63
2019-03-06T10:50:26.291Z,40.10
2019-03-06T10:52:50.244Z,34.93
2019-03-06T10:55:19.696Z,37.03
2019-03-06T10:57:49.150Z,33.20
2019-03-06T11:00:20.547Z,35.77
2019-03-06T11:02:50.239Z,33.33
2019-03-06T11:05:32.318Z,31.77
2019-03-06T11:08:02.170Z,33.30
2019-03-06T11:10:32.545Z,33.27
2019-03-06T11:13:03.630Z,33.90
2019-03-06T11:15:33.342Z,36.03
2019-03-06T11:18:02.725Z,35.20
2019-03-06T11:20:32.569Z,32.67
2019-03-06T11:23:02.270Z,35.60
2019-03-06T11:25:32.524Z,30.13
2019-03-06T11:28:02.184Z,33.20
2019-03-06T11:30:33.291Z,37.10
2019-03-06T11:33:02.608Z,33.60
2019-03-06T11:35:34.097Z,35.53
2019-03-06T11:38:03.396Z,29.37
2019-03-06T11:40:33.541Z,33.50
2019-03-06T11:43:02.722Z,36.17
2019-03-06T11:45:32.591Z,29.80
2019-03-06T11:48:03.619Z,32.60
2019-03-06T11:50:40.620Z,29.90
2019-03-06T11:53:04.368Z,25.43
2019-03-06T11:55:33.806Z,30.93
2019-03-06T11:58:03.164Z,22.67
2019-03-06T12:00:39.496Z,24.27
2019-03-06T12:03:09.241Z,24.63
2019-03-06T12:05:38.556Z,25.40
2019-03-06T12:08:09.853Z,34.10
2019-03-06T12:10:39.231Z,26.17
2019-03-06T12:13:09.595Z,24.13
2019-03-06T12:15:38.963Z,22.47
2019-03-06T12:18:08.235Z,26.57
2019-03-06T12:20:38.534Z,24.87
2019-03-06T12:23:08.011Z,29.63
2019-03-06T12:25:37.684Z,27.17
2019-03-06T12:28:08.213Z,26.23
2019-03-06T12:30:39.470Z,27.73
2019-03-06T12:33:08.963Z,21.60
2019-03-06T12:35:38.466Z,28.13
2019-03-06T12:38:07.782Z,26.00
2019-03-06T12:40:38.050Z,20.33
2019-03-06T12:43:09.854Z,25.33
2019-03-06T12:45:39.219Z,20.53
2019-03-06T12:48:09.206Z,22.70
2019-03-06T12:50:38.512Z,21.93
2019-03-06T12:53:07.738Z,19.67
2019-03-06T12:55:37.027Z,24.43
2019-03-06T12:58:06.240Z,23.60
2019-03-06T13:00:35.756Z,24.50
2019-03-06T13:03:04.971Z,25.70
2019-03-06T13:05:34.324Z,20.43
2019-03-06T13:08:03.657Z,19.73
2019-03-06T13:10:32.883Z,21.57
2019-03-06T13:13:02.617Z,29.53
2019-03-06T13:15:32.255Z,24.40
2019-03-06T13:18:01.541Z,32.00
2019-03-06T13:20:30.844Z,24.00
2019-03-06T13:23:00.199Z,24.70
2019-03-06T13:25:29.458Z,22.73
2019-03-06T13:27:58.695Z,26.57
2019-03-06T13:30:29.815Z,22.23
2019-03-06T13:33:07.815Z,19.30
2019-03-06T13:35:37.232Z,24.07
2019-03-06T13:38:06.559Z,23.80
2019-03-06T13:40:35.799Z,18.40
2019-03-06T13:43:05.118Z,22.33
2019-03-06T13:45:34.429Z,19.10
2019-03-06T13:48:03.720Z,23.47
2019-03-06T13:50:32.994Z,19.53
2019-03-06T13:53:02.254Z,16.87
2019-03-06T13:55:31.594Z,21.37
2019-03-06T13:58:01.018Z,20.27
2019-03-06T14:00:30.336Z,19.80
2019-03-06T14:03:01.749Z,18.97
2019-03-06T14:05:31.058Z,20.73
2019-03-06T14:08:01.547Z,22.03
2019-03-06T14:10:30.786Z,24.07
2019-03-06T14:12:59.990Z,18.73
2019-03-06T14:15:29.324Z,27.93
2019-03-06T14:17:58.574Z,18.83
2019-03-06T14:20:27.920Z,20.30
2019-03-06T14:22:57.438Z,15.53
2019-03-06T14:25:26.988Z,17.47
2019-03-06T14:27:56.262Z,20.33
2019-03-06T14:30:25.609Z,18.53
2019-03-06T14:32:54.848Z,17.23
2019-03-06T14:35:24.854Z,13.23
2019-03-06T14:37:54.140Z,16.00
2019-03-06T14:40:26.618Z,13.77
2019-03-06T14:42:56.274Z,19.30
2019-03-06T14:45:25.564Z,16.30
2019-03-06T14:47:54.870Z,16.20
2019-03-06T14:50:24.187Z,14.77
2019-03-06T14:52:53.493Z,16.40
2019-03-06T14:55:22.759Z,17.07
2019-03-06T14:57:51.964Z,17.33
2019-03-06T15:00:21.569Z,17.20
2019-03-06T15:02:51.077Z,13.77
2019-03-06T15:05:20.667Z,16.87
2019-03-06T15:07:50.013Z,15.77
2019-03-06T15:10:19.290Z,17.90
2019-03-06T15:12:48.608Z,15.07
2019-03-06T15:15:18.096Z,15.70
2019-03-06T15:17:47.546Z,15.77
2019-03-06T15:20:17.490Z,17.50
2019-03-06T15:22:47.566Z,16.13
2019-03-06T15:25:18.095Z,15.93
2019-03-06T15:27:47.374Z,19.20
2019-03-06T15:30:17.575Z,16.80
2019-03-06T15:32:47.230Z,15.13
2019-03-06T15:35:16.693Z,18.23
2019-03-06T15:37:46.113Z,18.43
2019-03-06T15:40:17.135Z,15.13
2019-03-06T15:42:46.430Z,16.13
2019-03-06T15:45:16.547Z,17.10
2019-03-06T15:47:46.079Z,15.87
2019-03-06T15:50:15.642Z,16.03
2019-03-06T15:52:44.940Z,15.53
2019-03-06T15:55:14.318Z,20.67
2019-03-06T15:57:43.618Z,17.73
2019-03-06T16:00:33.638Z,20.77
2019-03-06T16:03:03.754Z,18.70
2019-03-06T16:05:33.349Z,14.93
2019-03-06T16:08:02.657Z,18.87
2019-03-06T16:10:31.923Z,13.87
2019-03-06T16:13:01.255Z,18.33
2019-03-06T16:15:31.549Z,15.07
2019-03-06T16:18:01.494Z,16.77
2019-03-06T16:20:30.755Z,20.80
2019-03-06T16:23:01.134Z,15.20
2019-03-06T16:25:36.905Z,15.73
2019-03-06T16:28:01.252Z,20.20
2019-03-06T16:30:31.551Z,19.23
2019-03-06T16:33:00.980Z,16.70
2019-03-06T16:35:30.672Z,19.83
2019-03-06T16:37:59.867Z,15.27
2019-03-06T16:40:30.804Z,16.57
2019-03-06T16:43:00.021Z,14.23
2019-03-06T16:45:29.820Z,16.07
2019-03-06T16:48:00.271Z,16.17
2019-03-06T16:50:29.633Z,17.47
2019-03-06T16:52:58.931Z,14.83
2019-03-06T16:55:28.331Z,15.03
2019-03-06T16:57:57.953Z,18.10
2019-03-06T17:00:28.281Z,16.43
2019-03-06T17:02:57.728Z,15.87
2019-03-06T17:05:48.665Z,16.30
2019-03-06T17:08:25.919Z,23.63
2019-03-06T17:10:52.080Z,15.33
2019-03-06T17:13:22.319Z,16.37
2019-03-06T17:15:51.786Z,15.83
2019-03-06T17:18:22.787Z,15.00
2019-03-06T17:20:52.121Z,14.67
2019-03-06T17:23:21.355Z,12.50
2019-03-06T17:25:50.690Z,15.77
2019-03-06T17:28:20.198Z,14.73
2019-03-06T17:30:49.749Z,12.70
2019-03-06T17:33:19.120Z,13.63
2019-03-06T17:35:48.448Z,15.57
2019-03-06T17:38:19.474Z,13.40
2019-03-06T17:40:49.751Z,14.33
2019-03-06T17:43:19.138Z,13.17
2019-03-06T17:45:48.391Z,11.97
2019-03-06T17:48:17.688Z,12.17
2019-03-06T17:50:46.977Z,18.07
2019-03-06T17:53:16.215Z,14.83
2019-03-06T17:55:45.633Z,13.97
2019-03-06T17:58:15.053Z,12.57
2019-03-06T18:00:50.382Z,13.50
2019-03-06T18:03:24.841Z,13.27
2019-03-06T18:05:54.067Z,14.30
2019-03-06T18:08:23.384Z,13.07
2019-03-06T18:10:52.788Z,13.40
2019-03-06T18:13:22.114Z,12.30
2019-03-06T18:15:51.452Z,11.73
2019-03-06T18:18:20.728Z,17.60
2019-03-06T18:20:49.973Z,13.30
2019-03-06T18:23:19.220Z,13.90
2019-03-06T18:25:48.765Z,15.03
2019-03-06T18:28:17.992Z,14.63
2019-03-06T18:30:47.419Z,13.87
2019-03-06T18:33:16.647Z,15.07
2019-03-06T18:35:45.887Z,17.13
2019-03-06T18:38:15.072Z,15.10
2019-03-06T18:40:44.508Z,15.40
2019-03-06T18:43:13.751Z,17.37
2019-03-06T18:45:43.036Z,16.53
2019-03-06T18:48:12.736Z,16.80
2019-03-06T18:50:42.043Z,17.47
2019-03-06T18:53:11.305Z,17.73
2019-03-06T18:55:41.119Z,17.20
2019-03-06T18:58:10.569Z,17.03
2019-03-06T19:00:40.148Z,18.73
2019-03-06T19:03:10.281Z,18.27
2019-03-06T19:05:40.500Z,18.43
2019-03-06T19:08:09.859Z,15.70
2019-03-06T19:10:39.468Z,16.17
2019-03-06T19:13:08.931Z,16.50
2019-03-06T19:15:39.043Z,16.57
2019-03-06T19:18:08.342Z,18.83
2019-03-06T19:20:37.820Z,14.63
2019-03-06T19:23:07.118Z,17.37
2019-03-06T19:25:36.309Z,16.87
2019-03-06T19:28:06.962Z,17.83
2019-03-06T19:30:37.759Z,17.27
2019-03-06T19:33:07.226Z,16.23
2019-03-06T19:35:36.722Z,15.47
2019-03-06T19:38:06.269Z,18.97
2019-03-06T19:40:35.799Z,19.80
2019-03-06T19:43:05.062Z,17.60
2019-03-06T19:45:34.270Z,17.73
2019-03-06T19:48:03.524Z,18.67
2019-03-06T19:50:32.821Z,18.07
2019-03-06T19:53:02.130Z,19.00
2019-03-06T19:55:31.338Z,17.53
2019-03-06T19:58:01.832Z,17.43
2019-03-06T20:00:32.602Z,18.97
2019-03-06T20:03:02.000Z,17.40
2019-03-06T20:05:36.109Z,24.93
2019-03-06T20:08:07.653Z,20.57
2019-03-06T20:10:37.082Z,21.90
2019-03-06T20:13:06.549Z,19.93
2019-03-06T20:15:36.205Z,20.00
2019-03-06T20:18:06.571Z,19.77
2019-03-06T20:20:35.899Z,19.10
2019-03-06T20:23:05.276Z,20.93
2019-03-06T20:25:34.613Z,20.70
2019-03-06T20:28:04.003Z,19.53
2019-03-06T20:30:33.265Z,20.20
2019-03-06T20:33:02.462Z,19.83
2019-03-06T20:35:31.784Z,19.33
2019-03-06T20:38:01.208Z,21.43
2019-03-06T20:40:30.464Z,22.10
2019-03-06T20:42:59.932Z,18.47
2019-03-06T20:45:29.261Z,20.10
2019-03-06T20:47:58.578Z,18.63
2019-03-06T20:50:27.771Z,21.83
2019-03-06T20:52:58.072Z,20.90
2019-03-06T20:55:27.325Z,21.53
2019-03-06T20:57:56.928Z,19.90
2019-03-06T21:00:27.724Z,19.83
2019-03-06T21:02:57.032Z,21.03
2019-03-06T21:05:26.287Z,20.77
2019-03-06T21:07:55.530Z,20.87
2019-03-06T21:10:24.725Z,18.57
2019-03-06T21:12:54.051Z,19.70
2019-03-06T21:15:23.354Z,19.67
2019-03-06T21:17:52.580Z,20.17
2019-03-06T21:20:21.945Z,20.80
2019-03-06T21:22:51.431Z,20.87
2019-03-06T21:25:20.743Z,22.40
2019-03-06T21:27:50.158Z,19.80
2019-03-06T21:30:26.114Z,19.93
2019-03-06T21:32:55.405Z,20.60
2019-03-06T21:35:24.790Z,19.40
2019-03-06T21:37:54.102Z,20.00
2019-03-06T21:40:24.600Z,19.23
2019-03-06T21:42:53.930Z,21.17
2019-03-06T21:45:23.377Z,18.60
2019-03-06T21:47:52.845Z,21.90
2019-03-06T21:50:22.223Z,19.50
2019-03-06T21:52:51.478Z,22.57
2019-03-06T21:55:20.674Z,26.70
2019-03-06T21:57:50.167Z,21.17
2019-03-06T22:00:19.705Z,20.43
2019-03-06T22:02:48.959Z,20.27
2019-03-06T22:05:18.384Z,20.87
2019-03-06T22:07:50.205Z,20.03
2019-03-06T22:10:18.748Z,21.40
2019-03-06T22:12:48.091Z,22.63
2019-03-06T22:15:17.573Z,22.03
2019-03-06T22:17:46.854Z,19.97
2019-03-06T22:20:16.172Z,22.47
2019-03-06T22:22:45.648Z,20.03
2019-03-06T22:25:15.320Z,21.57
2019-03-06T22:27:44.637Z,20.63
2019-03-06T22:30:14.996Z,21.43
2019-03-06T22:32:44.303Z,19.43
2019-03-06T22:35:13.717Z,21.50
2019-03-06T22:37:42.979Z,20.20
2019-03-06T22:40:14.260Z,19.77
2019-03-06T22:42:43.547Z,19.40
2019-03-06T22:45:14.014Z,22.47
2019-03-06T22:47:43.265Z,18.43
2019-03-06T22:50:12.941Z,24.00
2019-03-06T22:52:42.244Z,22.37
2019-03-06T22:55:13.339Z,21.17
2019-03-06T22:57:42.508Z,20.47
2019-03-06T23:00:19.873Z,19.03
2019-03-06T23:02:50.939Z,20.20
2019-03-06T23:05:20.334Z,19.00
2019-03-06T23:07:50.647Z,19.10
2019-03-06T23:10:20.166Z,20.30
2019-03-06T23:12:49.363Z,20.20
2019-03-06T23:15:18.600Z,20.80
2019-03-06T23:17:47.938Z,20.63
2019-03-06T23:20:17.383Z,21.07
2019-03-06T23:22:46.731Z,21.07
2019-03-06T23:25:18.061Z,20.70
2019-03-06T23:27:46.951Z,18.03
2019-03-06T23:30:16.350Z,20.87
2019-03-06T23:32:45.617Z,24.07
2019-03-06T23:35:14.970Z,18.70
2019-03-06T23:37:44.222Z,21.80
2019-03-06T23:40:13.647Z,22.93
2019-03-06T23:42:43.021Z,21.70
2019-03-06T23:45:12.339Z,20.93
2019-03-06T23:47:41.875Z,21.07
2019-03-06T23:50:11.642Z,20.90
2019-03-06T23:53:15.139Z,22.87
2019-03-06T23:55:44.379Z,21.73
2019-03-06T23:58:13.554Z,19.10
